sensor_id;sensor_type;location;lat;lon;timestamp;pressure;altitude;pressure_sealevel;temperature;humidity
49393;BME280;35268;42.642;23.308;2023-04-09T00:01:06;94100.06;;;6.58;79.49
49393;BME280;35268;42.642;23.308;2023-04-09T00:03:32;94097.41;;;6.58;79.25
49393;BME280;35268;42.642;23.308;2023-04-09T00:05:58;94105.63;;;6.57;79.22
49393;BME280;35268;42.642;23.308;2023-04-09T00:08:24;94103.34;;;6.50;79.27
49393;BME280;35268;42.642;23.308;2023-04-09T00:10:50;94105.41;;;6.53;79.06
49393;BME280;35268;42.642;23.308;2023-04-09T00:13:16;94110.69;;;6.53;78.90
49393;BME280;35268;42.642;23.308;2023-04-09T00:15:43;94117.09;;;6.52;79.17
49393;BME280;35268;42.642;23.308;2023-04-09T00:18:08;94113.34;;;6.53;79.29
49393;BME280;35268;42.642;23.308;2023-04-09T00:20:34;94117.31;;;6.56;78.93
49393;BME280;35268;42.642;23.308;2023-04-09T00:22:59;94104.91;;;6.51;79.00
49393;BME280;35268;42.642;23.308;2023-04-09T00:25:25;94106.75;;;6.51;79.29
49393;BME280;35268;42.642;23.308;2023-04-09T00:27:50;94110.69;;;6.53;79.43
49393;BME280;35268;42.642;23.308;2023-04-09T00:30:16;94107.22;;;6.58;79.70
49393;BME280;35268;42.642;23.308;2023-04-09T00:32:41;94108.78;;;6.59;79.49
49393;BME280;35268;42.642;23.308;2023-04-09T00:35:07;94110.66;;;6.58;79.25
49393;BME280;35268;42.642;23.308;2023-04-09T00:37:33;94113.34;;;6.53;79.55
49393;BME280;35268;42.642;23.308;2023-04-09T00:39:59;94126.09;;;6.51;79.72
49393;BME280;35268;42.642;23.308;2023-04-09T00:42:25;94113.34;;;6.53;79.92
49393;BME280;35268;42.642;23.308;2023-04-09T00:44:51;94114.44;;;6.52;80.02
49393;BME280;35268;42.642;23.308;2023-04-09T00:47:17;94109.13;;;6.52;79.93
49393;BME280;35268;42.642;23.308;2023-04-09T00:49:42;94112.84;;;6.51;79.42
49393;BME280;35268;42.642;23.308;2023-04-09T00:52:09;94118.22;;;6.46;79.55
49393;BME280;35268;42.642;23.308;2023-04-09T00:54:34;94119.25;;;6.45;79.46
49393;BME280;35268;42.642;23.308;2023-04-09T00:57:00;94119.25;;;6.45;79.83
49393;BME280;35268;42.642;23.308;2023-04-09T00:59:26;94119.25;;;6.45;79.78
49393;BME280;35268;42.642;23.308;2023-04-09T01:01:51;94111.38;;;6.40;79.94
49393;BME280;35268;42.642;23.308;2023-04-09T01:04:17;94112.16;;;6.40;79.92
49393;BME280;35268;42.642;23.308;2023-04-09T01:06:58;94120.63;;;6.42;79.86
49393;BME280;35268;42.642;23.308;2023-04-09T01:09:44;94118.47;;;6.45;79.92
49393;BME280;35268;42.642;23.308;2023-04-09T01:14:58;94119.31;;;6.40;79.19
49393;BME280;35268;42.642;23.308;2023-04-09T01:17:43;94128.38;;;6.34;79.44
49393;BME280;35268;42.642;23.308;2023-04-09T01:20:20;94128.72;;;6.27;79.97
49393;BME280;35268;42.642;23.308;2023-04-09T01:28:15;94130.84;;;6.25;80.71
49393;BME280;35268;42.642;23.308;2023-04-09T01:30:44;94132.16;;;6.28;80.67
49393;BME280;35268;42.642;23.308;2023-04-09T01:33:13;94124.22;;;6.28;80.46
49393;BME280;35268;42.642;23.308;2023-04-09T01:35:42;94128.72;;;6.27;80.50
49393;BME280;35268;42.642;23.308;2023-04-09T01:38:08;94126.59;;;6.29;80.36
49393;BME280;35268;42.642;23.308;2023-04-09T01:40:35;94125.50;;;6.30;80.42
49393;BME280;35268;42.642;23.308;2023-04-09T01:43:01;94120.72;;;6.32;80.51
49393;BME280;35268;42.642;23.308;2023-04-09T01:45:27;94123.59;;;6.36;80.12
49393;BME280;35268;42.642;23.308;2023-04-09T01:47:53;94123.09;;;6.34;80.01
49393;BME280;35268;42.642;23.308;2023-04-09T01:50:19;94126.53;;;6.34;80.02
49393;BME280;35268;42.642;23.308;2023-04-09T01:52:45;94123.38;;;6.32;79.95
49393;BME280;35268;42.642;23.308;2023-04-09T01:55:11;94127.09;;;6.31;79.87
49393;BME280;35268;42.642;23.308;2023-04-09T01:57:36;94127.88;;;6.32;79.65
49393;BME280;35268;42.642;23.308;2023-04-09T02:00:03;94129.75;;;6.31;79.22
49393;BME280;35268;42.642;23.308;2023-04-09T02:02:41;94129.53;;;6.22;79.76
49393;BME280;35268;42.642;23.308;2023-04-09T02:05:11;94122.78;;;6.11;80.15
49393;BME280;35268;42.642;23.308;2023-04-09T02:07:43;94120.66;;;6.08;80.63
49393;BME280;35268;42.642;23.308;2023-04-09T02:10:12;94119.88;;;6.08;80.35
49393;BME280;35268;42.642;23.308;2023-04-09T02:12:39;94127.06;;;6.02;80.50
49393;BME280;35268;42.642;23.308;2023-04-09T02:15:07;94120.22;;;6.01;80.50
49393;BME280;35268;42.642;23.308;2023-04-09T02:17:33;94122.34;;;5.99;80.47
49393;BME280;35268;42.642;23.308;2023-04-09T02:19:59;94126.28;;;6.01;80.53
49393;BME280;35268;42.642;23.308;2023-04-09T02:22:24;94122.78;;;6.06;80.41
49393;BME280;35268;42.642;23.308;2023-04-09T02:24:50;94123.59;;;6.07;79.97
49393;BME280;35268;42.642;23.308;2023-04-09T02:27:15;94123.38;;;6.03;79.74
49393;BME280;35268;42.642;23.308;2023-04-09T02:29:41;94124.94;;;6.04;79.43
49393;BME280;35268;42.642;23.308;2023-04-09T02:32:07;94117.06;;;5.99;79.46
49393;BME280;35268;42.642;23.308;2023-04-09T02:34:32;94122.34;;;5.94;79.48
49393;BME280;35268;42.642;23.308;2023-04-09T02:36:58;94117.34;;;5.92;79.44
49393;BME280;35268;42.642;23.308;2023-04-09T02:39:23;94115.47;;;5.93;79.32
49393;BME280;35268;42.642;23.308;2023-04-09T02:41:49;94113.38;;;5.95;78.80
49393;BME280;35268;42.642;23.308;2023-04-09T02:44:14;94120.25;;;5.91;79.12
49393;BME280;35268;42.642;23.308;2023-04-09T02:46:40;94120.03;;;5.87;78.78
49393;BME280;35268;42.642;23.308;2023-04-09T02:49:06;94121.06;;;5.86;78.76
49393;BME280;35268;42.642;23.308;2023-04-09T02:51:34;94112.63;;;5.84;78.33
49393;BME280;35268;42.642;23.308;2023-04-09T02:54:00;94105.00;;;5.77;78.01
49393;BME280;35268;42.642;23.308;2023-04-09T02:56:25;94115.13;;;5.70;78.04
49393;BME280;35268;42.642;23.308;2023-04-09T02:58:51;94119.38;;;5.66;78.04
49393;BME280;35268;42.642;23.308;2023-04-09T03:01:18;94108.31;;;5.64;78.08
49393;BME280;35268;42.642;23.308;2023-04-09T03:03:44;94115.72;;;5.62;78.08
49393;BME280;35268;42.642;23.308;2023-04-09T03:06:10;94110.97;;;5.59;78.27
49393;BME280;35268;42.642;23.308;2023-04-09T03:08:35;94107.53;;;5.58;78.09
49393;BME280;35268;42.642;23.308;2023-04-09T03:11:01;94105.72;;;5.54;77.98
49393;BME280;35268;42.642;23.308;2023-04-09T03:13:27;94108.91;;;5.51;78.08
49393;BME280;35268;42.642;23.308;2023-04-09T03:15:52;94103.09;;;5.49;77.96
49393;BME280;35268;42.642;23.308;2023-04-09T03:18:18;94109.72;;;5.46;77.84
49393;BME280;35268;42.642;23.308;2023-04-09T03:20:44;94106.59;;;5.39;77.83
49393;BME280;35268;42.642;23.308;2023-04-09T03:23:10;94112.19;;;5.37;77.65
49393;BME280;35268;42.642;23.308;2023-04-09T03:25:35;94104.25;;;5.32;77.66
49393;BME280;35268;42.642;23.308;2023-04-09T03:28:01;94106.94;;;5.27;77.73
49393;BME280;35268;42.642;23.308;2023-04-09T03:30:27;94107.75;;;5.22;78.05
49393;BME280;35268;42.642;23.308;2023-04-09T03:32:53;94106.97;;;5.22;78.11
49393;BME280;35268;42.642;23.308;2023-04-09T03:35:18;94103.31;;;5.13;78.27
49393;BME280;35268;42.642;23.308;2023-04-09T03:37:44;94104.38;;;5.12;78.29
49393;BME280;35268;42.642;23.308;2023-04-09T03:40:09;94099.41;;;5.05;78.57
49393;BME280;35268;42.642;23.308;2023-04-09T03:42:35;94111.28;;;5.02;78.73
49393;BME280;35268;42.642;23.308;2023-04-09T03:45:02;94109.72;;;5.01;78.65
49393;BME280;35268;42.642;23.308;2023-04-09T03:47:28;94111.84;;;4.99;78.41
49393;BME280;35268;42.642;23.308;2023-04-09T03:49:53;94111.31;;;4.97;78.42
49393;BME280;35268;42.642;23.308;2023-04-09T03:52:18;94117.69;;;4.91;78.77
49393;BME280;35268;42.642;23.308;2023-04-09T03:54:44;94116.59;;;4.92;78.75
49393;BME280;35268;42.642;23.308;2023-04-09T03:57:09;94115.03;;;4.91;78.58
49393;BME280;35268;42.642;23.308;2023-04-09T03:59:35;94121.09;;;4.92;78.43
49393;BME280;35268;42.642;23.308;2023-04-09T04:02:00;94108.72;;;4.87;78.53
49393;BME280;35268;42.642;23.308;2023-04-09T04:04:26;94117.69;;;4.86;78.58
49393;BME280;35268;42.642;23.308;2023-04-09T04:06:51;94115.06;;;4.86;78.21
49393;BME280;35268;42.642;23.308;2023-04-09T04:09:17;94124.84;;;4.86;78.47
49393;BME280;35268;42.642;23.308;2023-04-09T04:11:42;94116.13;;;4.85;78.82
49393;BME280;35268;42.642;23.308;2023-04-09T04:14:08;94121.66;;;4.89;78.23
49393;BME280;35268;42.642;23.308;2023-04-09T04:16:33;94118.22;;;4.88;78.41
49393;BME280;35268;42.642;23.308;2023-04-09T04:18:59;94117.69;;;4.86;78.53
49393;BME280;35268;42.642;23.308;2023-04-09T04:21:24;94117.69;;;4.86;78.54
49393;BME280;35268;42.642;23.308;2023-04-09T04:23:50;94126.66;;;4.90;78.43
49393;BME280;35268;42.642;23.308;2023-04-09T04:26:15;94125.88;;;4.95;78.29
49393;BME280;35268;42.642;23.308;2023-04-09T04:28:40;94126.66;;;4.95;78.19
49393;BME280;35268;42.642;23.308;2023-04-09T04:31:09;94121.38;;;4.95;78.19
49393;BME280;35268;42.642;23.308;2023-04-09T04:33:36;94121.84;;;5.02;78.21
49393;BME280;35268;42.642;23.308;2023-04-09T04:36:10;94124.50;;;5.02;78.31
49393;BME280;35268;42.642;23.308;2023-04-09T04:38:36;94121.59;;;5.04;78.55
49393;BME280;35268;42.642;23.308;2023-04-09T04:41:03;94120.53;;;5.05;78.71
49393;BME280;35268;42.642;23.308;2023-04-09T04:43:29;94123.91;;;5.11;79.06
49393;BME280;35268;42.642;23.308;2023-04-09T04:45:54;94121.75;;;5.23;79.18
49393;BME280;35268;42.642;23.308;2023-04-09T04:48:20;94120.38;;;5.36;79.33
49393;BME280;35268;42.642;23.308;2023-04-09T04:50:46;94119.53;;;5.46;79.63
49393;BME280;35268;42.642;23.308;2023-04-09T04:53:11;94122.38;;;5.54;79.82
49393;BME280;35268;42.642;23.308;2023-04-09T04:55:37;94123.09;;;5.65;79.96
49393;BME280;35268;42.642;23.308;2023-04-09T04:58:05;94127.97;;;5.82;80.10
49393;BME280;35268;42.642;23.308;2023-04-09T05:00:31;94124.47;;;5.97;80.12
49393;BME280;35268;42.642;23.308;2023-04-09T05:02:56;94120.91;;;6.12;80.05
49393;BME280;35268;42.642;23.308;2023-04-09T05:05:22;94117.31;;;6.27;79.85
49393;BME280;35268;42.642;23.308;2023-04-09T05:07:47;94121.97;;;6.40;79.74
49393;BME280;35268;42.642;23.308;2023-04-09T05:10:13;94117.88;;;6.53;79.28
49393;BME280;35268;42.642;23.308;2023-04-09T05:12:38;94124.88;;;6.68;79.05
49393;BME280;35268;42.642;23.308;2023-04-09T05:15:04;94124.31;;;6.71;78.75
49393;BME280;35268;42.642;23.308;2023-04-09T05:17:30;94126.84;;;6.81;78.83
49393;BME280;35268;42.642;23.308;2023-04-09T05:19:55;94127.84;;;6.85;78.67
49393;BME280;35268;42.642;23.308;2023-04-09T05:22:22;94128.00;;;6.94;78.24
49393;BME280;35268;42.642;23.308;2023-04-09T05:24:47;94129.25;;;7.01;77.95
49393;BME280;35268;42.642;23.308;2023-04-09T05:27:13;94123.91;;;7.07;77.41
49393;BME280;35268;42.642;23.308;2023-04-09T05:29:38;94128.00;;;7.18;76.94
49393;BME280;35268;42.642;23.308;2023-04-09T05:32:04;94121.03;;;7.22;76.46
49393;BME280;35268;42.642;23.308;2023-04-09T05:34:29;94124.94;;;7.30;76.41
49393;BME280;35268;42.642;23.308;2023-04-09T05:36:55;94114.53;;;7.33;76.14
49393;BME280;35268;42.642;23.308;2023-04-09T05:39:20;94122.38;;;7.43;76.02
49393;BME280;35268;42.642;23.308;2023-04-09T05:41:46;94126.00;;;7.48;75.59
49393;BME280;35268;42.642;23.308;2023-04-09T05:44:11;94132.53;;;7.55;75.57
49393;BME280;35268;42.642;23.308;2023-04-09T05:46:37;94134.38;;;7.55;75.20
49393;BME280;35268;42.642;23.308;2023-04-09T05:49:02;94134.84;;;7.62;74.66
49393;BME280;35268;42.642;23.308;2023-04-09T05:51:28;94140.13;;;7.62;74.63
49393;BME280;35268;42.642;23.308;2023-04-09T05:53:53;94132.59;;;7.69;74.54
49393;BME280;35268;42.642;23.308;2023-04-09T05:56:19;94129.88;;;7.74;74.31
49393;BME280;35268;42.642;23.308;2023-04-09T05:58:47;94129.22;;;7.82;73.74
49393;BME280;35268;42.642;23.308;2023-04-09T06:01:12;94124.34;;;7.90;73.08
49393;BME280;35268;42.642;23.308;2023-04-09T06:03:38;94132.22;;;7.95;72.94
49393;BME280;35268;42.642;23.308;2023-04-09T06:06:03;94129.91;;;8.07;72.63
49393;BME280;35268;42.642;23.308;2023-04-09T06:08:29;94130.34;;;8.14;72.07
49393;BME280;35268;42.642;23.308;2023-04-09T06:10:54;94128.06;;;8.21;71.76
49393;BME280;35268;42.642;23.308;2023-04-09T06:13:20;94138.03;;;8.30;71.31
49393;BME280;35268;42.642;23.308;2023-04-09T06:15:45;94132.78;;;8.43;70.86
49393;BME280;35268;42.642;23.308;2023-04-09T06:18:11;94129.88;;;8.59;70.33
49393;BME280;35268;42.642;23.308;2023-04-09T06:20:36;94135.38;;;8.76;69.51
49393;BME280;35268;42.642;23.308;2023-04-09T06:23:03;94142.97;;;8.83;68.73
49393;BME280;35268;42.642;23.308;2023-04-09T06:25:29;94134.63;;;8.90;68.11
49393;BME280;35268;42.642;23.308;2023-04-09T06:27:56;94135.28;;;8.95;67.79
49393;BME280;35268;42.642;23.308;2023-04-09T06:30:21;94133.25;;;9.06;67.60
49393;BME280;35268;42.642;23.308;2023-04-09T06:32:47;94138.16;;;9.13;67.04
49393;BME280;35268;42.642;23.308;2023-04-09T06:35:13;94125.75;;;9.22;66.55
49393;BME280;35268;42.642;23.308;2023-04-09T06:37:39;94135.19;;;9.28;66.24
49393;BME280;35268;42.642;23.308;2023-04-09T06:40:05;94131.72;;;9.41;65.98
49393;BME280;35268;42.642;23.308;2023-04-09T06:42:31;94136.81;;;9.52;65.55
49393;BME280;35268;42.642;23.308;2023-04-09T06:44:57;94146.16;;;9.63;65.26
49393;BME280;35268;42.642;23.308;2023-04-09T06:47:22;94132.31;;;9.75;63.76
49393;BME280;35268;42.642;23.308;2023-04-09T06:49:47;94137.59;;;9.89;63.65
49393;BME280;35268;42.642;23.308;2023-04-09T06:52:13;94142.19;;;9.97;63.54
49393;BME280;35268;42.642;23.308;2023-04-09T06:54:38;94134.94;;;10.11;63.01
49393;BME280;35268;42.642;23.308;2023-04-09T06:57:05;94140.94;;;10.17;62.32
49393;BME280;35268;42.642;23.308;2023-04-09T06:59:31;94135.50;;;10.22;62.18
49393;BME280;35268;42.642;23.308;2023-04-09T07:01:58;94146.09;;;10.36;61.16
49393;BME280;35268;42.642;23.308;2023-04-09T07:04:23;94140.50;;;10.46;59.98
49393;BME280;35268;42.642;23.308;2023-04-09T07:06:49;94143.91;;;10.60;59.18
49393;BME280;35268;42.642;23.308;2023-04-09T07:09:16;94141.00;;;10.71;59.36
49393;BME280;35268;42.642;23.308;2023-04-09T07:11:42;94146.06;;;10.81;59.04
49393;BME280;35268;42.642;23.308;2023-04-09T07:14:08;94141.53;;;10.90;58.27
49393;BME280;35268;42.642;23.308;2023-04-09T07:16:33;94143.75;;;10.97;58.24
49393;BME280;35268;42.642;23.308;2023-04-09T07:18:58;94143.63;;;11.11;57.89
49393;BME280;35268;42.642;23.308;2023-04-09T07:21:24;94140.09;;;11.24;56.74
49393;BME280;35268;42.642;23.308;2023-04-09T07:23:50;94141.22;;;11.40;56.97
49393;BME280;35268;42.642;23.308;2023-04-09T07:26:16;94133.09;;;11.54;55.04
49393;BME280;35268;42.642;23.308;2023-04-09T07:28:41;94138.44;;;11.63;54.92
49393;BME280;35268;42.642;23.308;2023-04-09T07:31:07;94138.91;;;11.74;54.96
49393;BME280;35268;42.642;23.308;2023-04-09T07:33:32;94135.03;;;11.89;53.92
49393;BME280;35268;42.642;23.308;2023-04-09T07:35:58;94140.84;;;11.99;54.18
49393;BME280;35268;42.642;23.308;2023-04-09T07:38:23;94141.31;;;12.10;53.83
49393;BME280;35268;42.642;23.308;2023-04-09T07:40:49;94142.41;;;12.18;54.09
49393;BME280;35268;42.642;23.308;2023-04-09T07:43:14;94150.72;;;12.34;54.19
49393;BME280;35268;42.642;23.308;2023-04-09T07:45:41;94150.41;;;12.44;53.60
49393;BME280;35268;42.642;23.308;2023-04-09T07:48:06;94153.22;;;12.56;52.90
49393;BME280;35268;42.642;23.308;2023-04-09T07:50:33;94160.13;;;12.57;51.96
49393;BME280;35268;42.642;23.308;2023-04-09T07:52:58;94151.66;;;12.38;51.62
49393;BME280;35268;42.642;23.308;2023-04-09T07:55:24;94157.63;;;12.35;52.70
49393;BME280;35268;42.642;23.308;2023-04-09T07:57:50;94160.00;;;12.28;53.17
49393;BME280;35268;42.642;23.308;2023-04-09T08:00:16;94154.81;;;12.14;53.07
49393;BME280;35268;42.642;23.308;2023-04-09T08:02:42;94156.88;;;12.08;52.72
49393;BME280;35268;42.642;23.308;2023-04-09T08:05:08;94158.91;;;12.02;53.46
49393;BME280;35268;42.642;23.308;2023-04-09T08:07:33;94168.34;;;12.00;53.47
49393;BME280;35268;42.642;23.308;2023-04-09T08:09:58;94164.59;;;12.01;52.77
49393;BME280;35268;42.642;23.308;2023-04-09T08:12:24;94164.91;;;11.91;53.11
49393;BME280;35268;42.642;23.308;2023-04-09T08:14:49;94162.63;;;11.84;52.31
49393;BME280;35268;42.642;23.308;2023-04-09T08:17:15;94167.03;;;11.71;53.08
49393;BME280;35268;42.642;23.308;2023-04-09T08:19:40;94166.72;;;11.73;53.64
49393;BME280;35268;42.642;23.308;2023-04-09T08:22:06;94167.03;;;11.71;53.38
49393;BME280;35268;42.642;23.308;2023-04-09T08:24:31;94162.00;;;11.70;53.48
49393;BME280;35268;42.642;23.308;2023-04-09T08:26:56;94162.31;;;11.68;54.33
49393;BME280;35268;42.642;23.308;2023-04-09T08:29:22;94167.63;;;11.68;54.07
49393;BME280;35268;42.642;23.308;2023-04-09T08:31:48;94155.88;;;11.69;54.10
49393;BME280;35268;42.642;23.308;2023-04-09T08:34:13;94153.97;;;11.70;53.96
49393;BME280;35268;42.642;23.308;2023-04-09T08:36:40;94161.69;;;11.71;53.86
49393;BME280;35268;42.642;23.308;2023-04-09T08:39:09;94155.56;;;11.71;54.10
49393;BME280;35268;42.642;23.308;2023-04-09T08:41:37;94160.44;;;11.69;54.48
49393;BME280;35268;42.642;23.308;2023-04-09T08:44:05;94153.81;;;11.66;54.32
49393;BME280;35268;42.642;23.308;2023-04-09T08:46:31;94157.44;;;11.61;53.99
49393;BME280;35268;42.642;23.308;2023-04-09T08:48:56;94152.72;;;11.58;54.47
49393;BME280;35268;42.642;23.308;2023-04-09T08:51:22;94152.56;;;11.55;54.44
49393;BME280;35268;42.642;23.308;2023-04-09T08:53:53;94161.16;;;11.52;54.18
49393;BME280;35268;42.642;23.308;2023-04-09T08:56:19;94158.66;;;11.47;54.90
49393;BME280;35268;42.642;23.308;2023-04-09T08:58:48;94165.25;;;11.49;54.71
49393;BME280;35268;42.642;23.308;2023-04-09T09:01:25;94149.41;;;11.53;54.81
49393;BME280;35268;42.642;23.308;2023-04-09T09:06:22;94150.66;;;11.47;54.43
49393;BME280;35268;42.642;23.308;2023-04-09T09:09:03;94148.94;;;11.51;55.62
49393;BME280;35268;42.642;23.308;2023-04-09T09:11:29;94153.50;;;11.59;54.95
49393;BME280;35268;42.642;23.308;2023-04-09T09:14:14;94145.50;;;11.59;54.93
49393;BME280;35268;42.642;23.308;2023-04-09T09:17:02;94148.00;;;11.64;53.86
49393;BME280;35268;42.642;23.308;2023-04-09T09:19:30;94140.31;;;11.71;53.69
49393;BME280;35268;42.642;23.308;2023-04-09T09:21:59;94144.56;;;11.72;52.77
49393;BME280;35268;42.642;23.308;2023-04-09T09:24:26;94146.13;;;11.73;53.24
49393;BME280;35268;42.642;23.308;2023-04-09T09:26:51;94139.25;;;11.81;53.01
49393;BME280;35268;42.642;23.308;2023-04-09T09:29:18;94143.53;;;11.91;52.70
49393;BME280;35268;42.642;23.308;2023-04-09T09:31:51;94139.44;;;12.02;52.35
49393;BME280;35268;42.642;23.308;2023-04-09T09:34:19;94132.34;;;12.15;51.87
49393;BME280;35268;42.642;23.308;2023-04-09T09:36:45;94139.91;;;12.21;50.79
49393;BME280;35268;42.642;23.308;2023-04-09T09:39:11;94132.34;;;12.23;51.33
49393;BME280;35268;42.642;23.308;2023-04-09T09:41:38;94135.47;;;12.34;50.92
49393;BME280;35268;42.642;23.308;2023-04-09T09:44:03;94127.09;;;12.53;50.26
49393;BME280;35268;42.642;23.308;2023-04-09T09:46:37;94124.22;;;12.67;49.71
49393;BME280;35268;42.642;23.308;2023-04-09T09:49:03;94118.38;;;12.74;49.38
49393;BME280;35268;42.642;23.308;2023-04-09T09:51:30;94114.25;;;12.85;49.58
49393;BME280;35268;42.642;23.308;2023-04-09T09:53:57;94120.81;;;13.05;48.91
49393;BME280;35268;42.642;23.308;2023-04-09T09:56:43;94109.53;;;13.20;47.50
49393;BME280;35268;42.642;23.308;2023-04-09T09:59:16;94112.03;;;13.25;46.96
49393;BME280;35268;42.642;23.308;2023-04-09T10:01:45;94113.44;;;13.32;46.58
49393;BME280;35268;42.642;23.308;2023-04-09T10:04:13;94118.13;;;13.43;47.10
49393;BME280;35268;42.642;23.308;2023-04-09T10:06:42;94110.03;;;13.52;46.43
49393;BME280;35268;42.642;23.308;2023-04-09T10:09:09;94115.91;;;13.67;46.53
49393;BME280;35268;42.642;23.308;2023-04-09T10:11:36;94101.50;;;13.80;46.17
49393;BME280;35268;42.642;23.308;2023-04-09T10:14:02;94114.41;;;13.99;46.21
49393;BME280;35268;42.642;23.308;2023-04-09T10:16:29;94109.56;;;14.13;44.63
49393;BME280;35268;42.642;23.308;2023-04-09T10:18:56;94094.38;;;14.17;45.16
49393;BME280;35268;42.642;23.308;2023-04-09T10:23:55;94095.34;;;14.34;44.18
49393;BME280;35268;42.642;23.308;2023-04-09T10:26:24;94098.06;;;14.46;43.77
49393;BME280;35268;42.642;23.308;2023-04-09T10:29:14;94104.59;;;14.57;43.27
49393;BME280;35268;42.642;23.308;2023-04-09T10:34:23;94101.06;;;14.78;42.23
49393;BME280;35268;42.642;23.308;2023-04-09T10:36:55;94099.19;;;14.91;42.05
49393;BME280;35268;42.642;23.308;2023-04-09T10:39:25;94093.94;;;14.94;39.68
49393;BME280;35268;42.642;23.308;2023-04-09T10:41:51;94090.13;;;15.08;41.42
49393;BME280;35268;42.642;23.308;2023-04-09T10:44:19;94093.38;;;15.25;40.28
49393;BME280;35268;42.642;23.308;2023-04-09T10:46:45;94088.69;;;15.10;39.94
49393;BME280;35268;42.642;23.308;2023-04-09T10:49:11;94093.59;;;15.20;40.99
49393;BME280;35268;42.642;23.308;2023-04-09T10:51:38;94092.13;;;15.35;40.55
49393;BME280;35268;42.642;23.308;2023-04-09T10:59:37;94079.56;;;15.64;39.00
49393;BME280;35268;42.642;23.308;2023-04-09T11:02:31;94074.38;;;15.71;38.16
49393;BME280;35268;42.642;23.308;2023-04-09T11:07:39;94071.50;;;15.76;38.66
49393;BME280;35268;42.642;23.308;2023-04-09T11:10:06;94070.19;;;15.98;38.25
49393;BME280;35268;42.642;23.308;2023-04-09T11:12:32;94065.38;;;16.20;37.67
49393;BME280;35268;42.642;23.308;2023-04-09T11:14:58;94070.03;;;16.35;36.94
49393;BME280;35268;42.642;23.308;2023-04-09T11:17:24;94077.50;;;16.42;36.44
49393;BME280;35268;42.642;23.308;2023-04-09T11:19:49;94071.94;;;16.35;35.90
49393;BME280;35268;42.642;23.308;2023-04-09T11:22:15;94074.53;;;16.31;36.52
49393;BME280;35268;42.642;23.308;2023-04-09T11:24:45;94077.91;;;16.28;36.81
49393;BME280;35268;42.642;23.308;2023-04-09T11:27:11;94066.75;;;16.42;36.58
49393;BME280;35268;42.642;23.308;2023-04-09T11:29:37;94072.13;;;16.42;36.82
49393;BME280;35268;42.642;23.308;2023-04-09T11:32:03;94071.88;;;16.47;36.62
49393;BME280;35268;42.642;23.308;2023-04-09T11:34:31;94065.47;;;16.52;37.26
49393;BME280;35268;42.642;23.308;2023-04-09T11:36:57;94068.50;;;16.50;36.53
49393;BME280;35268;42.642;23.308;2023-04-09T11:39:24;94062.75;;;16.36;35.87
49393;BME280;35268;42.642;23.308;2023-04-09T11:41:51;94058.47;;;16.19;36.01
49393;BME280;35268;42.642;23.308;2023-04-09T11:44:16;94059.72;;;16.09;36.40
49393;BME280;35268;42.642;23.308;2023-04-09T11:46:42;94060.41;;;15.78;37.02
49393;BME280;35268;42.642;23.308;2023-04-09T11:49:08;94063.19;;;15.69;37.73
49393;BME280;35268;42.642;23.308;2023-04-09T11:51:34;94062.13;;;15.45;38.85
49393;BME280;35268;42.642;23.308;2023-04-09T11:54:06;94059.47;;;15.21;40.14
49393;BME280;35268;42.642;23.308;2023-04-09T11:56:31;94064.63;;;15.01;40.61
49393;BME280;35268;42.642;23.308;2023-04-09T11:59:00;94067.75;;;14.79;41.86
49393;BME280;35268;42.642;23.308;2023-04-09T12:01:30;94056.00;;;14.71;41.76
49393;BME280;35268;42.642;23.308;2023-04-09T12:03:57;94051.06;;;14.73;43.43
49393;BME280;35268;42.642;23.308;2023-04-09T12:06:23;94053.88;;;14.77;42.44
49393;BME280;35268;42.642;23.308;2023-04-09T12:08:56;94048.75;;;14.72;42.13
49393;BME280;35268;42.642;23.308;2023-04-09T12:11:29;94052.50;;;14.58;41.66
49393;BME280;35268;42.642;23.308;2023-04-09T12:14:02;94046.81;;;14.60;40.68
49393;BME280;35268;42.642;23.308;2023-04-09T12:16:31;94046.06;;;14.59;40.54
49393;BME280;35268;42.642;23.308;2023-04-09T12:19:05;94043.97;;;14.44;41.18
49393;BME280;35268;42.642;23.308;2023-04-09T12:24:12;94038.16;;;14.42;40.51
49393;BME280;35268;42.642;23.308;2023-04-09T12:26:38;94039.25;;;14.41;40.24
49393;BME280;35268;42.642;23.308;2023-04-09T12:29:03;94040.19;;;14.45;40.96
49393;BME280;35268;42.642;23.308;2023-04-09T12:31:29;94032.63;;;14.59;40.70
49393;BME280;35268;42.642;23.308;2023-04-09T12:33:54;94045.63;;;14.82;40.20
49393;BME280;35268;42.642;23.308;2023-04-09T12:36:19;94034.06;;;14.94;40.75
49393;BME280;35268;42.642;23.308;2023-04-09T12:38:45;94029.53;;;14.94;39.84
49393;BME280;35268;42.642;23.308;2023-04-09T12:41:10;94034.44;;;14.92;39.55
49393;BME280;35268;42.642;23.308;2023-04-09T12:43:37;94025.13;;;15.02;39.62
49393;BME280;35268;42.642;23.308;2023-04-09T12:46:02;94023.13;;;15.11;38.90
49393;BME280;35268;42.642;23.308;2023-04-09T12:48:28;94026.25;;;15.13;39.87
49393;BME280;35268;42.642;23.308;2023-04-09T12:50:53;94029.28;;;15.12;38.21
49393;BME280;35268;42.642;23.308;2023-04-09T12:53:19;94027.59;;;15.07;38.24
49393;BME280;35268;42.642;23.308;2023-04-09T12:55:45;94023.72;;;14.92;38.72
49393;BME280;35268;42.642;23.308;2023-04-09T12:58:13;94027.50;;;14.79;39.20
49393;BME280;35268;42.642;23.308;2023-04-09T13:00:38;94019.44;;;14.91;39.12
49393;BME280;35268;42.642;23.308;2023-04-09T13:03:04;94016.09;;;14.82;38.90
49393;BME280;35268;42.642;23.308;2023-04-09T13:05:29;94012.28;;;14.83;38.25
49393;BME280;35268;42.642;23.308;2023-04-09T13:07:59;94018.09;;;14.73;38.92
49393;BME280;35268;42.642;23.308;2023-04-09T13:10:25;94013.94;;;14.63;38.96
49393;BME280;35268;42.642;23.308;2023-04-09T13:12:51;94011.19;;;14.59;39.49
49393;BME280;35268;42.642;23.308;2023-04-09T13:15:16;94019.44;;;14.67;39.24
49393;BME280;35268;42.642;23.308;2023-04-09T13:17:42;94018.34;;;14.80;39.61
49393;BME280;35268;42.642;23.308;2023-04-09T13:20:07;94008.81;;;14.82;37.92